ASX454 LEPA-LIRF
Flight info
| Callsign | ASX454 |
|---|---|
| Flight time | 1h 6m |
| Altitude | 36000 |
| Route | MORSS DCT BAVON DCT ORKUM DCT ELSAG DCT ALG DCT ROMPO DCT RUXOP DCT BATOX DCT TINTO L5 VALMA |
| Aircraft | A320/M-SDE3FGHIRWY/LB1 |
Departure
| Time | 2026-05-05 18:40 |
|---|---|
| Airport | Palma de Mallorca Airport (LEPA) |
Arrival
| Time | 2026-05-05 19:47 |
|---|---|
| Airport | Rome–Fiumicino Leonardo da Vinci International Airport (LIRF) |
| Time | Latitude | Longitude | Altitude | Speed | Heading |
|---|---|---|---|---|---|
| 2026-05-05 18:40 | 39.34640 | 3.05231 | 21645 ft | 427 kts | 69° |
| 2026-05-05 18:40 | 39.35724 | 3.08820 | 22217 ft | 431 kts | 69° |
| 2026-05-05 18:41 | 39.36805 | 3.12416 | 22766 ft | 435 kts | 69° |
| 2026-05-05 18:41 | 39.37906 | 3.16074 | 23309 ft | 439 kts | 69° |
| 2026-05-05 18:41 | 39.39022 | 3.19802 | 23834 ft | 444 kts | 69° |
| 2026-05-05 18:41 | 39.40134 | 3.23511 | 24375 ft | 447 kts | 70° |
| 2026-05-05 18:42 | 39.41264 | 3.27287 | 24936 ft | 450 kts | 70° |
| 2026-05-05 18:42 | 39.42379 | 3.31023 | 25459 ft | 453 kts | 70° |
| 2026-05-05 18:42 | 39.43525 | 3.34868 | 25940 ft | 456 kts | 70° |
| 2026-05-05 18:42 | 39.44652 | 3.38658 | 26418 ft | 459 kts | 70° |
| 2026-05-05 18:43 | 39.45802 | 3.42528 | 26891 ft | 462 kts | 70° |
| 2026-05-05 18:43 | 39.46959 | 3.46423 | 27345 ft | 466 kts | 70° |
| 2026-05-05 18:43 | 39.48122 | 3.50344 | 27775 ft | 469 kts | 70° |
| 2026-05-05 18:43 | 39.49289 | 3.54291 | 28210 ft | 472 kts | 70° |
| 2026-05-05 18:44 | 39.50466 | 3.58274 | 28624 ft | 475 kts | 70° |
| 2026-05-05 18:44 | 39.51634 | 3.62234 | 29035 ft | 478 kts | 70° |
| 2026-05-05 18:44 | 39.52831 | 3.66294 | 29433 ft | 481 kts | 70° |
| 2026-05-05 18:44 | 39.54026 | 3.70369 | 29900 ft | 482 kts | 71° |
| 2026-05-05 18:45 | 39.55204 | 3.74391 | 30428 ft | 481 kts | 71° |
| 2026-05-05 18:45 | 39.56372 | 3.78383 | 30985 ft | 479 kts | 71° |
| 2026-05-05 18:45 | 39.57560 | 3.82446 | 31551 ft | 476 kts | 71° |
| 2026-05-05 18:45 | 39.58714 | 3.86391 | 32058 ft | 475 kts | 71° |
| 2026-05-05 18:46 | 39.59882 | 3.90399 | 32535 ft | 474 kts | 71° |
| 2026-05-05 18:46 | 39.61041 | 3.94372 | 32993 ft | 473 kts | 71° |
| 2026-05-05 18:46 | 39.62196 | 3.98346 | 33462 ft | 472 kts | 71° |
| 2026-05-05 18:46 | 39.63356 | 4.02334 | 33902 ft | 470 kts | 71° |
| 2026-05-05 18:47 | 39.64507 | 4.06300 | 34310 ft | 470 kts | 72° |
| 2026-05-05 18:47 | 39.65650 | 4.10248 | 34637 ft | 470 kts | 71° |
| 2026-05-05 18:47 | 39.66784 | 4.14178 | 34912 ft | 471 kts | 71° |
| 2026-05-05 18:47 | 39.67938 | 4.18177 | 35188 ft | 473 kts | 71° |
| 2026-05-05 18:48 | 39.69076 | 4.22127 | 35470 ft | 473 kts | 71° |
| 2026-05-05 18:48 | 39.70233 | 4.26144 | 35719 ft | 475 kts | 71° |
| 2026-05-05 18:48 | 39.71379 | 4.30124 | 35874 ft | 477 kts | 71° |
| 2026-05-05 18:48 | 39.72546 | 4.34189 | 35888 ft | 478 kts | 71° |
| 2026-05-05 18:49 | 39.74862 | 4.42272 | 35894 ft | 478 kts | 71° |
| 2026-05-05 18:49 | 39.77155 | 4.50298 | 35900 ft | 478 kts | 71° |
| 2026-05-05 18:50 | 39.79469 | 4.58426 | 35904 ft | 478 kts | 71° |
| 2026-05-05 18:50 | 39.81762 | 4.66508 | 35894 ft | 478 kts | 72° |
| 2026-05-05 18:51 | 39.84053 | 4.74626 | 35896 ft | 478 kts | 72° |
| 2026-05-05 18:51 | 39.86329 | 4.82714 | 35896 ft | 478 kts | 72° |
| 2026-05-05 18:52 | 39.88615 | 4.90854 | 35901 ft | 479 kts | 72° |
| 2026-05-05 18:52 | 39.90874 | 4.98915 | 35900 ft | 478 kts | 72° |
| 2026-05-05 18:53 | 39.93145 | 5.07040 | 35900 ft | 478 kts | 72° |
| 2026-05-05 18:53 | 39.95404 | 5.15151 | 35897 ft | 478 kts | 72° |
| 2026-05-05 18:54 | 39.97666 | 5.23309 | 35897 ft | 478 kts | 72° |
| 2026-05-05 18:54 | 39.99906 | 5.31399 | 35900 ft | 477 kts | 72° |
| 2026-05-05 18:55 | 40.02146 | 5.39516 | 35903 ft | 477 kts | 72° |
| 2026-05-05 18:55 | 40.04388 | 5.47671 | 35903 ft | 478 kts | 72° |
| 2026-05-05 18:56 | 40.06607 | 5.55771 | 35900 ft | 478 kts | 72° |
| 2026-05-05 18:56 | 40.08846 | 5.63962 | 35906 ft | 477 kts | 72° |
| 2026-05-05 18:57 | 40.11067 | 5.72102 | 35905 ft | 477 kts | 73° |
| 2026-05-05 18:57 | 40.13291 | 5.80208 | 35904 ft | 477 kts | 73° |
| 2026-05-05 18:58 | 40.15506 | 5.88357 | 35906 ft | 477 kts | 73° |
| 2026-05-05 18:58 | 40.17700 | 5.96482 | 35907 ft | 478 kts | 73° |
| 2026-05-05 18:59 | 40.19910 | 6.04693 | 35910 ft | 478 kts | 73° |
| 2026-05-05 18:59 | 40.22097 | 6.12853 | 35912 ft | 477 kts | 73° |
| 2026-05-05 19:00 | 40.24268 | 6.20985 | 35910 ft | 477 kts | 73° |
| 2026-05-05 19:00 | 40.26456 | 6.29207 | 35916 ft | 477 kts | 73° |
| 2026-05-05 19:01 | 40.28613 | 6.37342 | 35916 ft | 477 kts | 73° |
| 2026-05-05 19:01 | 40.30792 | 6.45578 | 35916 ft | 478 kts | 73° |
| 2026-05-05 19:02 | 40.32952 | 6.53773 | 35914 ft | 478 kts | 73° |
| 2026-05-05 19:02 | 40.35105 | 6.61961 | 35915 ft | 477 kts | 73° |
| 2026-05-05 19:03 | 40.37260 | 6.70202 | 35913 ft | 477 kts | 73° |
| 2026-05-05 19:03 | 40.39388 | 6.78387 | 35923 ft | 477 kts | 73° |
| 2026-05-05 19:04 | 40.41522 | 6.86609 | 35927 ft | 478 kts | 74° |
| 2026-05-05 19:04 | 40.43652 | 6.94813 | 35926 ft | 478 kts | 73° |
| 2026-05-05 19:05 | 40.45773 | 7.03038 | 35925 ft | 478 kts | 73° |
| 2026-05-05 19:05 | 40.47889 | 7.11260 | 35924 ft | 477 kts | 73° |
| 2026-05-05 19:06 | 40.50011 | 7.19516 | 35924 ft | 477 kts | 74° |
| 2026-05-05 19:06 | 40.52112 | 7.27744 | 35927 ft | 477 kts | 73° |
| 2026-05-05 19:07 | 40.54212 | 7.35977 | 35925 ft | 477 kts | 73° |
| 2026-05-05 19:07 | 40.56305 | 7.44222 | 35928 ft | 477 kts | 73° |
| 2026-05-05 19:08 | 40.58396 | 7.52483 | 35927 ft | 476 kts | 73° |
| 2026-05-05 19:08 | 40.60461 | 7.60671 | 35931 ft | 477 kts | 73° |
| 2026-05-05 19:09 | 40.62537 | 7.68931 | 35926 ft | 477 kts | 73° |
| 2026-05-05 19:09 | 40.64607 | 7.77217 | 35932 ft | 477 kts | 73° |
| 2026-05-05 19:10 | 40.66662 | 7.85467 | 35938 ft | 476 kts | 73° |
| 2026-05-05 19:10 | 40.68714 | 7.93712 | 35937 ft | 476 kts | 73° |
| 2026-05-05 19:11 | 40.70770 | 8.02005 | 35942 ft | 475 kts | 73° |
| 2026-05-05 19:11 | 40.72805 | 8.10240 | 35937 ft | 474 kts | 73° |
| 2026-05-05 19:12 | 40.74831 | 8.18473 | 35948 ft | 475 kts | 73° |
| 2026-05-05 19:12 | 40.76854 | 8.26719 | 35947 ft | 475 kts | 73° |
| 2026-05-05 19:13 | 40.78905 | 8.35106 | 35949 ft | 489 kts | 73° |
| 2026-05-05 19:13 | 40.81002 | 8.43726 | 35948 ft | 502 kts | 73° |
| 2026-05-05 19:14 | 40.83156 | 8.52600 | 35954 ft | 513 kts | 73° |
| 2026-05-05 19:14 | 40.85331 | 8.61597 | 35948 ft | 520 kts | 73° |
| 2026-05-05 19:15 | 40.87518 | 8.70674 | 35952 ft | 521 kts | 74° |
| 2026-05-05 19:15 | 40.89689 | 8.79761 | 35957 ft | 521 kts | 74° |
| 2026-05-05 19:16 | 40.91856 | 8.88847 | 35956 ft | 521 kts | 73° |
| 2026-05-05 19:16 | 40.94032 | 8.97996 | 35961 ft | 521 kts | 73° |
| 2026-05-05 19:17 | 40.96193 | 9.07077 | 35961 ft | 520 kts | 72° |
| 2026-05-05 19:17 | 40.98616 | 9.16102 | 35962 ft | 520 kts | 70° |
| 2026-05-05 19:18 | 41.01098 | 9.25039 | 35960 ft | 521 kts | 70° |
| 2026-05-05 19:18 | 41.03574 | 9.34066 | 35959 ft | 520 kts | 70° |
| 2026-05-05 19:19 | 41.04799 | 9.38572 | 35755 ft | 520 kts | 70° |
| 2026-05-05 19:19 | 41.06007 | 9.43027 | 35619 ft | 520 kts | 70° |
| 2026-05-05 19:19 | 41.07220 | 9.47519 | 35497 ft | 521 kts | 70° |
| 2026-05-05 19:19 | 41.08488 | 9.52020 | 35378 ft | 522 kts | 65° |
| 2026-05-05 19:20 | 41.11977 | 9.60396 | 35232 ft | 522 kts | 57° |
| 2026-05-05 19:20 | 41.15700 | 9.68597 | 35159 ft | 523 kts | 58° |
| 2026-05-05 19:21 | 41.19370 | 9.76897 | 34765 ft | 516 kts | 59° |
| 2026-05-05 19:21 | 41.21164 | 9.81013 | 33956 ft | 517 kts | 59° |
| 2026-05-05 19:21 | 41.22950 | 9.85122 | 32859 ft | 523 kts | 59° |
| 2026-05-05 19:22 | 41.24748 | 9.89273 | 31696 ft | 529 kts | 59° |
| 2026-05-05 19:22 | 41.26586 | 9.93522 | 30627 ft | 531 kts | 59° |
| 2026-05-05 19:22 | 41.28401 | 9.97736 | 30191 ft | 520 kts | 59° |
| 2026-05-05 19:22 | 41.30164 | 10.01830 | 29759 ft | 512 kts | 59° |
| 2026-05-05 19:23 | 41.31937 | 10.05944 | 28862 ft | 514 kts | 59° |
| 2026-05-05 19:23 | 41.33709 | 10.10067 | 28155 ft | 511 kts | 59° |
| 2026-05-05 19:23 | 41.35446 | 10.14113 | 27625 ft | 504 kts | 59° |
| 2026-05-05 19:23 | 41.37161 | 10.18117 | 27001 ft | 500 kts | 59° |
| 2026-05-05 19:24 | 41.38888 | 10.22147 | 25960 ft | 505 kts | 60° |
| 2026-05-05 19:24 | 41.40626 | 10.26206 | 24825 ft | 510 kts | 60° |
| 2026-05-05 19:24 | 41.42357 | 10.30256 | 23958 ft | 508 kts | 60° |
| 2026-05-05 19:24 | 41.44102 | 10.34349 | 23313 ft | 501 kts | 60° |
| 2026-05-05 19:25 | 41.45803 | 10.38347 | 22708 ft | 494 kts | 60° |
| 2026-05-05 19:25 | 41.47452 | 10.42230 | 22056 ft | 488 kts | 60° |
| 2026-05-05 19:25 | 41.49110 | 10.46138 | 21404 ft | 483 kts | 60° |
| 2026-05-05 19:25 | 41.50766 | 10.50041 | 20774 ft | 476 kts | 60° |
| 2026-05-05 19:26 | 41.52378 | 10.53850 | 20155 ft | 471 kts | 60° |
| 2026-05-05 19:26 | 41.53960 | 10.57590 | 19504 ft | 466 kts | 60° |
| 2026-05-05 19:26 | 41.55547 | 10.61346 | 18802 ft | 462 kts | 60° |
| 2026-05-05 19:26 | 41.57100 | 10.65029 | 17765 ft | 466 kts | 61° |
| 2026-05-05 19:27 | 41.58697 | 10.68830 | 16795 ft | 467 kts | 61° |
| 2026-05-05 19:27 | 41.60263 | 10.72565 | 16062 ft | 461 kts | 61° |
| 2026-05-05 19:27 | 41.61805 | 10.76248 | 15361 ft | 455 kts | 61° |
| 2026-05-05 19:27 | 41.63336 | 10.79900 | 14791 ft | 446 kts | 61° |
| 2026-05-05 19:28 | 41.64814 | 10.83429 | 14529 ft | 430 kts | 61° |
| 2026-05-05 19:28 | 41.66247 | 10.86853 | 14277 ft | 415 kts | 61° |
| 2026-05-05 19:28 | 41.67639 | 10.90180 | 14042 ft | 401 kts | 61° |
| 2026-05-05 19:28 | 41.68965 | 10.93353 | 13822 ft | 388 kts | 61° |
| 2026-05-05 19:29 | 41.70260 | 10.96454 | 13604 ft | 376 kts | 61° |
| 2026-05-05 19:29 | 41.71505 | 10.99442 | 13404 ft | 364 kts | 61° |
| 2026-05-05 19:29 | 41.72723 | 11.02367 | 13212 ft | 353 kts | 61° |
| 2026-05-05 19:29 | 41.73897 | 11.05191 | 13025 ft | 343 kts | 61° |
| 2026-05-05 19:30 | 41.75036 | 11.07930 | 12785 ft | 335 kts | 61° |
| 2026-05-05 19:30 | 41.76159 | 11.10636 | 12412 ft | 332 kts | 61° |
| 2026-05-05 19:30 | 41.77274 | 11.13326 | 12027 ft | 330 kts | 61° |
| 2026-05-05 19:30 | 41.78393 | 11.16023 | 11612 ft | 329 kts | 61° |
| 2026-05-05 19:31 | 41.79494 | 11.18680 | 11237 ft | 326 kts | 61° |
| 2026-05-05 19:31 | 41.80575 | 11.21292 | 10884 ft | 323 kts | 61° |
| 2026-05-05 19:31 | 41.81658 | 11.23909 | 10501 ft | 320 kts | 61° |
| 2026-05-05 19:31 | 41.82722 | 11.26483 | 10225 ft | 314 kts | 61° |
| 2026-05-05 19:32 | 41.83770 | 11.29021 | 10005 ft | 307 kts | 61° |
| 2026-05-05 19:32 | 41.84801 | 11.31524 | 9657 ft | 304 kts | 61° |
| 2026-05-05 19:32 | 41.85819 | 11.33990 | 9294 ft | 302 kts | 61° |
| 2026-05-05 19:32 | 41.86830 | 11.36443 | 8935 ft | 300 kts | 62° |
| 2026-05-05 19:33 | 41.87830 | 11.38872 | 8584 ft | 298 kts | 62° |
| 2026-05-05 19:33 | 41.88823 | 11.41288 | 8220 ft | 296 kts | 62° |
| 2026-05-05 19:33 | 41.89818 | 11.43712 | 7859 ft | 294 kts | 62° |
| 2026-05-05 19:33 | 41.90801 | 11.46105 | 7502 ft | 292 kts | 62° |
| 2026-05-05 19:34 | 41.91770 | 11.48470 | 7153 ft | 290 kts | 62° |
| 2026-05-05 19:34 | 41.92736 | 11.50828 | 6790 ft | 288 kts | 62° |
| 2026-05-05 19:34 | 41.93698 | 11.53180 | 6422 ft | 287 kts | 62° |
| 2026-05-05 19:35 | 41.95602 | 11.57836 | 5969 ft | 284 kts | 62° |
| 2026-05-05 19:35 | 41.96556 | 11.60169 | 5963 ft | 285 kts | 62° |
| 2026-05-05 19:35 | 41.97516 | 11.62524 | 5961 ft | 285 kts | 62° |
| 2026-05-05 19:35 | 41.98473 | 11.64869 | 5961 ft | 284 kts | 63° |
| 2026-05-05 19:36 | 41.99411 | 11.67179 | 5959 ft | 283 kts | 63° |
| 2026-05-05 19:36 | 42.00351 | 11.69499 | 5960 ft | 283 kts | 63° |
| 2026-05-05 19:36 | 42.01294 | 11.71828 | 5959 ft | 284 kts | 63° |
| 2026-05-05 19:36 | 42.02235 | 11.74148 | 5959 ft | 284 kts | 63° |
| 2026-05-05 19:37 | 42.03187 | 11.76493 | 5957 ft | 283 kts | 63° |
| 2026-05-05 19:37 | 42.04123 | 11.78800 | 5959 ft | 283 kts | 63° |
| 2026-05-05 19:37 | 42.05073 | 11.81142 | 5962 ft | 284 kts | 63° |
| 2026-05-05 19:37 | 42.06014 | 11.83466 | 5956 ft | 284 kts | 63° |
| 2026-05-05 19:38 | 42.06945 | 11.85764 | 5952 ft | 273 kts | 63° |
| 2026-05-05 19:38 | 42.07827 | 11.87946 | 5941 ft | 258 kts | 65° |
| 2026-05-05 19:38 | 42.08547 | 11.90146 | 5942 ft | 259 kts | 73° |
| 2026-05-05 19:38 | 42.09117 | 11.92450 | 5931 ft | 258 kts | 75° |
| 2026-05-05 19:39 | 42.09649 | 11.94732 | 5638 ft | 257 kts | 75° |
| 2026-05-05 19:39 | 42.10180 | 11.97023 | 5294 ft | 257 kts | 75° |
| 2026-05-05 19:39 | 42.10727 | 11.99320 | 4984 ft | 255 kts | 75° |
| 2026-05-05 19:39 | 42.11268 | 12.01582 | 4678 ft | 254 kts | 75° |
| 2026-05-05 19:40 | 42.11664 | 12.03855 | 4349 ft | 248 kts | 94° |
| 2026-05-05 19:40 | 42.11175 | 12.05956 | 4065 ft | 234 kts | 131° |
| 2026-05-05 19:40 | 42.10015 | 12.07508 | 3979 ft | 231 kts | 141° |
| 2026-05-05 19:40 | 42.08808 | 12.08952 | 3974 ft | 233 kts | 140° |
| 2026-05-05 19:41 | 42.07630 | 12.10461 | 3972 ft | 234 kts | 138° |
| 2026-05-05 19:41 | 42.06488 | 12.12020 | 3972 ft | 238 kts | 136° |
| 2026-05-05 19:41 | 42.05327 | 12.13662 | 3974 ft | 245 kts | 135° |
| 2026-05-05 19:41 | 42.04170 | 12.15334 | 3917 ft | 242 kts | 135° |
| 2026-05-05 19:42 | 42.03045 | 12.16979 | 3744 ft | 234 kts | 135° |
| 2026-05-05 19:42 | 42.01889 | 12.18441 | 3495 ft | 228 kts | 147° |
| 2026-05-05 19:42 | 42.00506 | 12.19431 | 3200 ft | 225 kts | 159° |
| 2026-05-05 19:42 | 41.99052 | 12.20131 | 2897 ft | 218 kts | 163° |
| 2026-05-05 19:43 | 41.97638 | 12.20719 | 2613 ft | 207 kts | 163° |
| 2026-05-05 19:43 | 41.96281 | 12.21269 | 2345 ft | 196 kts | 163° |
| 2026-05-05 19:43 | 41.95029 | 12.21785 | 2161 ft | 177 kts | 162° |
| 2026-05-05 19:43 | 41.93932 | 12.22241 | 1964 ft | 158 kts | 162° |
| 2026-05-05 19:44 | 41.92909 | 12.22669 | 1738 ft | 148 kts | 162° |
| 2026-05-05 19:44 | 41.91981 | 12.23058 | 1504 ft | 134 kts | 162° |
| 2026-05-05 19:44 | 41.91115 | 12.23420 | 1309 ft | 127 kts | 161° |
| 2026-05-05 19:44 | 41.90282 | 12.23770 | 1158 ft | 126 kts | 162° |
| 2026-05-05 19:45 | 41.89436 | 12.24123 | 1002 ft | 126 kts | 162° |
| 2026-05-05 19:45 | 41.88603 | 12.24468 | 844 ft | 126 kts | 161° |
| 2026-05-05 19:45 | 41.87766 | 12.24817 | 682 ft | 125 kts | 161° |
| 2026-05-05 19:45 | 41.86929 | 12.25169 | 511 ft | 125 kts | 162° |
| 2026-05-05 19:46 | 41.86100 | 12.25510 | 343 ft | 125 kts | 161° |
| 2026-05-05 19:46 | 41.85264 | 12.25867 | 188 ft | 125 kts | 161° |
| 2026-05-05 19:46 | 41.84431 | 12.26214 | 35 ft | 124 kts | 160° |
| 2026-05-05 19:46 | 41.83683 | 12.26523 | 10 ft | 93 kts | 160° |
| 2026-05-05 19:47 | 41.83225 | 12.26719 | 10 ft | 51 kts | 161° |
| 2026-05-05 19:47 | 41.82933 | 12.26839 | 10 ft | 35 kts | 168° |
| 2026-05-05 19:47 | 41.82698 | 12.26863 | 10 ft | 32 kts | 186° |
| 2026-05-05 19:47 | 41.82493 | 12.26805 | 10 ft | 28 kts | 195° |
| 2026-05-05 19:48 | 41.82296 | 12.26797 | 7 ft | 28 kts | 167° |
| 2026-05-05 19:48 | 41.82114 | 12.26866 | 8 ft | 25 kts | 161° |
| 2026-05-05 19:48 | 41.81950 | 12.26933 | 10 ft | 23 kts | 163° |
| 2026-05-05 19:48 | 41.81797 | 12.26997 | 10 ft | 22 kts | 162° |
| 2026-05-05 19:49 | 41.81645 | 12.27061 | 10 ft | 22 kts | 162° |
| 2026-05-05 19:49 | 41.81493 | 12.27124 | 10 ft | 22 kts | 162° |
| 2026-05-05 19:49 | 41.81338 | 12.27189 | 10 ft | 24 kts | 162° |
| 2026-05-05 19:49 | 41.81175 | 12.27258 | 10 ft | 25 kts | 162° |
| 2026-05-05 19:50 | 41.81004 | 12.27315 | 10 ft | 25 kts | 171° |
| 2026-05-05 19:50 | 41.80827 | 12.27330 | 10 ft | 25 kts | 188° |
| 2026-05-05 19:50 | 41.80666 | 12.27244 | 10 ft | 25 kts | 236° |
| 2026-05-05 19:50 | 41.80601 | 12.27027 | 10 ft | 24 kts | 249° |
| 2026-05-05 19:51 | 41.80542 | 12.26813 | 10 ft | 24 kts | 249° |
| 2026-05-05 19:51 | 41.80486 | 12.26605 | 11 ft | 22 kts | 248° |
| 2026-05-05 19:51 | 41.80440 | 12.26445 | 13 ft | 14 kts | 248° |
| 2026-05-05 19:51 | 41.80367 | 12.26366 | 13 ft | 15 kts | 179° |
| 2026-05-05 19:52 | 41.80261 | 12.26407 | 13 ft | 16 kts | 169° |
| 2026-05-05 19:52 | 41.80157 | 12.26424 | 13 ft | 15 kts | 159° |
| 2026-05-05 19:52 | 41.80096 | 12.26518 | 12 ft | 16 kts | 77° |
| 2026-05-05 19:52 | 41.80042 | 12.26622 | 10 ft | 16 kts | 158° |
| 2026-05-05 19:53 | 41.79922 | 12.26680 | 10 ft | 19 kts | 159° |
| 2026-05-05 19:53 | 41.79868 | 12.26679 | 10 ft | 5 kts | 252° |
| 2026-05-05 19:53 | 41.79861 | 12.26653 | 10 ft | 0 kts | 251° |